createdAt,value
2018-06-25T00:01:53.243Z,6.03
2018-06-25T00:04:23.267Z,7.37
2018-06-25T00:06:53.329Z,4.90
2018-06-25T00:09:22.811Z,3.80
2018-06-25T00:11:52.651Z,5.87
2018-06-25T00:14:22.364Z,4.57
2018-06-25T00:16:52.287Z,5.33
2018-06-25T00:19:21.961Z,6.13
2018-06-25T00:21:51.623Z,3.53
2018-06-25T00:24:21.215Z,3.80
2018-06-25T00:26:50.987Z,4.60
2018-06-25T00:29:20.860Z,5.27
2018-06-25T00:31:51.145Z,7.53
2018-06-25T00:34:20.720Z,5.33
2018-06-25T00:36:50.324Z,4.53
2018-06-25T00:39:19.951Z,6.23
2018-06-25T00:41:49.540Z,4.33
2018-06-25T00:44:19.125Z,4.27
2018-06-25T00:46:48.946Z,6.03
2018-06-25T00:49:18.666Z,4.37
2018-06-25T00:51:48.409Z,3.73
2018-06-25T00:54:18.149Z,5.43
2018-06-25T00:56:47.824Z,5.60
2018-06-25T00:59:27.886Z,5.33
2018-06-25T01:01:57.871Z,5.67
2018-06-25T01:04:27.490Z,4.20
2018-06-25T01:06:58.034Z,3.43
2018-06-25T01:09:28.328Z,4.37
2018-06-25T01:11:58.344Z,3.73
2018-06-25T01:14:27.780Z,4.27
2018-06-25T01:16:57.502Z,3.80
2018-06-25T01:19:26.980Z,5.53
2018-06-25T01:21:56.710Z,4.40
2018-06-25T01:24:26.547Z,6.03
2018-06-25T01:26:56.430Z,4.57
2018-06-25T01:29:26.622Z,3.87
2018-06-25T01:31:56.146Z,5.03
2018-06-25T01:34:26.153Z,5.33
2018-06-25T01:36:55.946Z,7.43
2018-06-25T01:39:26.015Z,4.53
2018-06-25T01:41:55.767Z,4.17
2018-06-25T01:44:25.228Z,4.97
2018-06-25T01:46:55.013Z,5.83
2018-06-25T01:49:24.699Z,4.73
2018-06-25T01:51:54.486Z,4.43
2018-06-25T01:54:24.723Z,5.83
2018-06-25T01:56:54.594Z,5.17
2018-06-25T01:59:24.425Z,3.97
2018-06-25T02:01:54.479Z,5.77
2018-06-25T02:04:24.156Z,4.73
2018-06-25T02:06:53.833Z,5.20
2018-06-25T02:09:23.440Z,5.20
2018-06-25T02:11:53.380Z,5.33
2018-06-25T02:14:22.864Z,3.83
2018-06-25T02:16:52.981Z,3.97
2018-06-25T02:19:22.457Z,3.90
2018-06-25T02:21:52.481Z,5.80
2018-06-25T02:24:22.831Z,4.87
2018-06-25T02:26:52.422Z,7.00
2018-06-25T02:29:21.980Z,6.83
2018-06-25T02:31:51.596Z,5.80
2018-06-25T02:34:21.221Z,5.27
2018-06-25T02:36:51.757Z,6.00
2018-06-25T02:39:21.581Z,5.97
2018-06-25T02:41:51.055Z,7.80
2018-06-25T02:44:21.025Z,9.80
2018-06-25T02:46:50.805Z,11.57
2018-06-25T02:49:20.330Z,8.57
2018-06-25T02:51:49.847Z,8.47
2018-06-25T02:54:19.885Z,8.00
2018-06-25T02:56:49.506Z,9.13
2018-06-25T02:59:19.327Z,7.67
2018-06-25T03:01:49.204Z,8.67
2018-06-25T03:04:18.923Z,8.23
2018-06-25T03:06:48.879Z,9.30
2018-06-25T03:09:18.721Z,9.70
2018-06-25T03:11:48.403Z,8.70
2018-06-25T03:14:17.922Z,9.50
2018-06-25T03:16:48.242Z,9.63
2018-06-25T03:19:17.758Z,10.00
2018-06-25T03:21:47.463Z,8.37
2018-06-25T03:24:16.964Z,8.87
2018-06-25T03:26:46.643Z,10.60
2018-06-25T03:29:16.085Z,9.07
2018-06-25T03:31:45.605Z,9.07
2018-06-25T03:34:15.189Z,10.33
2018-06-25T03:36:44.768Z,8.77
2018-06-25T03:39:14.161Z,9.10
2018-06-25T03:41:43.716Z,8.40
2018-06-25T03:44:13.262Z,9.13
2018-06-25T03:46:43.080Z,10.67
2018-06-25T03:49:12.561Z,9.57
2018-06-25T03:51:42.095Z,10.47
2018-06-25T03:54:12.078Z,9.27
2018-06-25T03:56:41.822Z,8.70
2018-06-25T03:59:11.594Z,6.43
2018-06-25T04:01:41.206Z,8.47
2018-06-25T04:04:11.119Z,8.40
2018-06-25T04:06:40.907Z,8.00
2018-06-25T04:09:11.921Z,8.10
2018-06-25T04:11:42.185Z,8.10
2018-06-25T04:14:12.082Z,8.50
2018-06-25T04:16:41.882Z,6.50
2018-06-25T04:19:11.604Z,6.47
2018-06-25T04:21:41.107Z,9.07
2018-06-25T04:24:10.646Z,7.77
2018-06-25T04:26:40.228Z,8.87
2018-06-25T04:29:10.003Z,6.50
2018-06-25T04:31:39.862Z,7.97
2018-06-25T04:34:09.523Z,7.97
2018-06-25T04:36:39.218Z,7.47
2018-06-25T04:39:11.129Z,10.17
2018-06-25T04:41:41.054Z,10.07
2018-06-25T04:44:10.944Z,7.70
2018-06-25T04:46:40.961Z,8.13
2018-06-25T04:49:11.245Z,8.20
2018-06-25T04:51:41.142Z,7.07
2018-06-25T04:54:10.862Z,8.67
2018-06-25T04:56:40.728Z,6.93
2018-06-25T04:59:10.481Z,7.93
2018-06-25T05:01:40.418Z,7.90
2018-06-25T05:04:10.214Z,7.67
2018-06-25T05:06:40.062Z,8.17
2018-06-25T05:09:11.487Z,7.60
2018-06-25T05:11:42.056Z,7.53
2018-06-25T05:14:11.818Z,5.67
2018-06-25T05:16:41.644Z,7.43
2018-06-25T05:19:11.605Z,7.40
2018-06-25T05:21:41.374Z,7.23
2018-06-25T05:24:11.221Z,5.03
2018-06-25T05:26:41.003Z,4.93
2018-06-25T05:29:10.705Z,5.83
2018-06-25T05:31:40.402Z,6.33
2018-06-25T05:34:10.151Z,6.20
2018-06-25T05:36:39.958Z,5.57
2018-06-25T05:39:12.270Z,6.83
2018-06-25T05:41:42.964Z,4.87
2018-06-25T05:44:13.517Z,5.37
2018-06-25T05:46:43.295Z,5.37
2018-06-25T05:49:13.705Z,5.37
2018-06-25T05:51:43.607Z,5.37
2018-06-25T05:54:14.412Z,6.27
2018-06-25T05:56:44.870Z,4.67
2018-06-25T05:59:16.166Z,6.93
2018-06-25T06:01:45.905Z,5.67
2018-06-25T06:04:16.896Z,5.10
2018-06-25T06:06:46.722Z,6.63
2018-06-25T06:09:17.365Z,6.63
2018-06-25T06:11:47.131Z,6.53
2018-06-25T06:14:16.911Z,6.60
2018-06-25T06:16:46.766Z,5.57
2018-06-25T06:19:16.475Z,6.00
2018-06-25T06:21:46.522Z,6.50
2018-06-25T06:24:16.329Z,5.93
2018-06-25T06:26:46.097Z,5.97
2018-06-25T06:29:15.842Z,6.27
2018-06-25T06:31:45.775Z,6.07
2018-06-25T06:34:15.635Z,5.70
2018-06-25T06:36:45.471Z,6.07
2018-06-25T06:39:16.430Z,5.30
2018-06-25T06:41:47.309Z,6.07
2018-06-25T06:44:17.079Z,6.27
2018-06-25T06:46:46.981Z,5.83
2018-06-25T06:49:16.814Z,8.00
2018-06-25T06:51:46.807Z,6.10
2018-06-25T06:54:16.604Z,5.30
2018-06-25T06:56:46.662Z,5.23
2018-06-25T06:59:16.423Z,4.67
2018-06-25T07:01:46.332Z,6.30
2018-06-25T07:04:16.384Z,5.37
2018-06-25T07:06:46.511Z,4.97
2018-06-25T07:09:16.380Z,5.90
2018-06-25T07:11:46.205Z,6.40
2018-06-25T07:14:16.028Z,5.03
2018-06-25T07:16:46.050Z,5.10
2018-06-25T07:19:15.925Z,5.63
2018-06-25T07:21:45.777Z,4.97
2018-06-25T07:24:15.623Z,4.70
2018-06-25T07:26:45.440Z,5.50
2018-06-25T07:29:15.345Z,5.00
2018-06-25T07:31:45.223Z,6.07
2018-06-25T07:34:14.998Z,4.20
2018-06-25T07:36:44.846Z,4.40
2018-06-25T07:39:14.491Z,4.20
2018-06-25T07:41:44.876Z,4.63
2018-06-25T07:44:14.663Z,4.23
2018-06-25T07:46:44.636Z,5.13
2018-06-25T07:49:14.487Z,5.27
2018-06-25T07:51:44.301Z,5.20
2018-06-25T07:54:14.019Z,3.72
2018-06-25T07:56:43.984Z,4.00
2018-06-25T07:59:13.997Z,3.50
2018-06-25T08:01:43.939Z,4.17
2018-06-25T08:04:13.698Z,3.67
2018-06-25T08:06:43.494Z,3.30
2018-06-25T08:09:14.019Z,4.55
2018-06-25T08:11:43.939Z,3.22
2018-06-25T08:14:13.700Z,3.62
2018-06-25T08:16:43.669Z,3.17
2018-06-25T08:19:13.532Z,3.90
2018-06-25T08:21:43.451Z,3.45
2018-06-25T08:24:13.160Z,6.53
2018-06-25T08:26:43.146Z,4.05
2018-06-25T08:29:13.024Z,3.37
2018-06-25T08:31:42.884Z,3.20
2018-06-25T08:34:12.787Z,4.35
2018-06-25T08:36:42.618Z,5.47
2018-06-25T08:39:13.860Z,3.12
2018-06-25T08:41:43.646Z,3.08
2018-06-25T08:44:13.392Z,2.98
2018-06-25T08:46:43.460Z,2.58
2018-06-25T08:49:13.203Z,2.92
2018-06-25T08:51:43.138Z,2.50
2018-06-25T08:54:12.925Z,3.20
2018-06-25T08:56:42.824Z,3.00
2018-06-25T08:59:13.251Z,2.98
2018-06-25T09:01:43.044Z,2.30
2018-06-25T09:04:12.850Z,3.02
2018-06-25T09:06:42.837Z,3.22
2018-06-25T09:09:13.962Z,3.45
2018-06-25T09:11:43.934Z,2.30
2018-06-25T09:14:13.794Z,3.10
2018-06-25T09:16:43.778Z,2.45
2018-06-25T09:19:13.530Z,2.90
2018-06-25T09:21:43.287Z,3.27
2018-06-25T09:24:13.321Z,3.37
2018-06-25T09:26:43.460Z,3.08
2018-06-25T09:29:13.299Z,2.27
2018-06-25T09:31:43.404Z,3.40
2018-06-25T09:34:18.259Z,3.25
2018-06-25T09:36:48.273Z,2.45
2018-06-25T09:39:18.014Z,2.15
2018-06-25T09:41:48.183Z,3.10
2018-06-25T09:44:17.853Z,1.62
2018-06-25T09:46:47.951Z,2.10
2018-06-25T09:49:17.701Z,2.60
2018-06-25T09:51:47.766Z,3.05
2018-06-25T09:54:17.530Z,4.15
2018-06-25T09:56:47.611Z,2.50
2018-06-25T09:59:17.384Z,2.60
2018-06-25T10:01:47.454Z,3.08
2018-06-25T10:04:17.569Z,3.37
2018-06-25T10:06:47.925Z,6.03
2018-06-25T10:09:17.973Z,3.33
2018-06-25T10:11:48.119Z,3.10
2018-06-25T10:14:18.092Z,3.25
2018-06-25T10:16:48.496Z,2.47
2018-06-25T10:19:18.649Z,2.22
2018-06-25T10:21:48.796Z,2.50
2018-06-25T10:24:18.796Z,2.45
2018-06-25T10:26:48.916Z,2.70
2018-06-25T10:29:18.788Z,2.40
2018-06-25T10:31:48.830Z,3.33
2018-06-25T10:34:18.580Z,2.83
2018-06-25T10:36:49.006Z,2.55
2018-06-25T10:39:18.968Z,3.05
2018-06-25T10:41:48.902Z,3.27
2018-06-25T10:44:18.932Z,2.15
2018-06-25T10:46:48.922Z,2.47
2018-06-25T10:49:18.995Z,2.47
2018-06-25T10:51:49.127Z,4.62
2018-06-25T10:54:19.169Z,2.85
2018-06-25T10:56:49.473Z,3.17
2018-06-25T10:59:19.739Z,3.20
2018-06-25T11:01:49.783Z,3.12
2018-06-25T11:04:19.620Z,2.90
2018-06-25T11:06:49.531Z,4.90
2018-06-25T11:09:19.298Z,3.10
2018-06-25T11:11:49.089Z,3.05
2018-06-25T11:14:19.176Z,2.90
2018-06-25T11:16:49.203Z,2.95
2018-06-25T11:19:19.130Z,2.62
2018-06-25T11:21:49.070Z,3.08
2018-06-25T11:24:18.924Z,4.22
2018-06-25T11:26:48.929Z,2.65
2018-06-25T11:29:18.758Z,3.08
2018-06-25T11:31:48.792Z,2.08
2018-06-25T11:34:18.809Z,2.25
2018-06-25T11:36:48.847Z,1.70
2018-06-25T11:39:18.694Z,2.10
2018-06-25T11:41:48.694Z,1.72
2018-06-25T11:44:18.532Z,2.50
2018-06-25T11:46:48.422Z,1.90
2018-06-25T11:49:18.328Z,2.08
2018-06-25T11:51:48.505Z,2.60
2018-06-25T11:54:18.429Z,1.98
2018-06-25T11:56:48.597Z,1.92
2018-06-25T11:59:18.441Z,1.57
2018-06-25T12:01:48.665Z,1.45
2018-06-25T12:04:18.817Z,1.50
2018-06-25T12:06:48.585Z,2.67
2018-06-25T12:09:18.325Z,2.20
2018-06-25T12:11:48.418Z,1.40
2018-06-25T12:14:18.364Z,1.30
2018-06-25T12:16:48.428Z,1.92
2018-06-25T12:19:18.353Z,2.12
2018-06-25T12:21:48.415Z,1.75
2018-06-25T12:24:18.480Z,1.40
2018-06-25T12:26:48.875Z,1.57
2018-06-25T12:29:18.793Z,1.32
2018-06-25T12:31:48.855Z,3.05
2018-06-25T12:34:18.580Z,1.37
2018-06-25T12:36:48.632Z,1.30
2018-06-25T12:39:18.732Z,2.22
2018-06-25T12:41:48.796Z,1.47
2018-06-25T12:44:18.883Z,1.32
2018-06-25T12:46:49.257Z,2.37
2018-06-25T12:49:19.389Z,2.12
2018-06-25T12:51:49.755Z,2.42
2018-06-25T12:54:19.572Z,1.85
2018-06-25T12:56:49.619Z,2.25
2018-06-25T12:59:19.637Z,3.17
2018-06-25T13:01:49.573Z,2.08
2018-06-25T13:04:19.531Z,1.92
2018-06-25T13:06:49.315Z,1.80
2018-06-25T13:09:19.292Z,3.00
2018-06-25T13:11:49.134Z,4.12
2018-06-25T13:14:19.117Z,2.22
2018-06-25T13:16:48.918Z,2.40
2018-06-25T13:19:18.765Z,2.10
2018-06-25T13:21:48.850Z,2.08
2018-06-25T13:24:18.614Z,1.92
2018-06-25T13:26:48.371Z,2.72
2018-06-25T13:29:18.269Z,3.45
2018-06-25T13:31:48.148Z,3.02
2018-06-25T13:34:18.204Z,2.25
2018-06-25T13:36:48.043Z,2.10
2018-06-25T13:39:18.011Z,1.70
2018-06-25T13:41:48.130Z,1.70
2018-06-25T13:44:18.157Z,1.30
2018-06-25T13:46:48.023Z,1.65
2018-06-25T13:49:18.085Z,3.05
2018-06-25T13:51:50.022Z,1.42
2018-06-25T13:54:19.893Z,1.40
2018-06-25T13:56:50.693Z,1.57
2018-06-25T13:59:20.620Z,1.52
2018-06-25T14:01:51.982Z,2.02
2018-06-25T14:04:21.973Z,1.12
2018-06-25T14:06:52.920Z,2.45
2018-06-25T14:09:22.937Z,1.25
2018-06-25T14:11:54.987Z,1.02
2018-06-25T14:14:24.953Z,1.72
2018-06-25T14:16:55.793Z,1.40
2018-06-25T14:19:25.779Z,1.42
2018-06-25T14:21:57.430Z,1.60
2018-06-25T14:24:32.128Z,1.20
2018-06-25T14:27:07.134Z,1.20
2018-06-25T14:29:37.524Z,2.67
2018-06-25T14:32:12.623Z,1.30
2018-06-25T14:34:42.331Z,2.22
2018-06-25T14:37:13.045Z,1.75
2018-06-25T14:39:42.766Z,2.08
2018-06-25T14:42:12.626Z,1.20
2018-06-25T14:44:42.347Z,1.00
2018-06-25T14:47:12.099Z,1.02
2018-06-25T14:49:42.097Z,1.07
2018-06-25T14:52:11.933Z,1.32
2018-06-25T14:54:41.861Z,0.80
2018-06-25T14:57:11.793Z,0.70
2018-06-25T14:59:41.700Z,0.90
2018-06-25T15:02:11.531Z,1.45
2018-06-25T15:04:41.557Z,1.47
2018-06-25T15:07:12.861Z,0.95
2018-06-25T15:09:42.823Z,0.80
2018-06-25T15:12:14.200Z,1.05
2018-06-25T15:14:44.106Z,2.08
2018-06-25T15:17:14.986Z,1.50
2018-06-25T15:19:45.024Z,1.95
2018-06-25T15:22:16.817Z,1.17
2018-06-25T15:24:46.962Z,1.77
2018-06-25T15:27:17.491Z,1.65
2018-06-25T15:29:47.386Z,1.35
2018-06-25T15:32:18.468Z,1.37
2018-06-25T15:34:48.417Z,1.45
2018-06-25T15:37:19.316Z,1.20
2018-06-25T15:39:49.124Z,0.93
2018-06-25T15:42:20.082Z,0.90
2018-06-25T15:44:49.856Z,1.07
2018-06-25T15:47:20.907Z,1.10
2018-06-25T15:49:50.868Z,0.90
2018-06-25T15:52:20.720Z,0.80
2018-06-25T15:54:51.124Z,1.12
2018-06-25T15:57:21.035Z,1.57
2018-06-25T15:59:51.005Z,1.00
2018-06-25T16:02:20.925Z,1.80
2018-06-25T16:04:50.865Z,1.22
2018-06-25T16:07:21.857Z,1.98
2018-06-25T16:09:51.898Z,2.83
2018-06-25T16:12:21.720Z,1.87
2018-06-25T16:14:51.783Z,2.77
2018-06-25T16:17:21.712Z,1.00
2018-06-25T16:19:51.645Z,1.62
2018-06-25T16:22:21.530Z,3.33
2018-06-25T16:24:51.780Z,1.40
2018-06-25T16:27:21.737Z,2.05
2018-06-25T16:29:52.076Z,1.40
2018-06-25T16:32:22.091Z,2.70
2018-06-25T16:34:52.137Z,3.17
2018-06-25T16:37:22.067Z,2.27
2018-06-25T16:39:52.018Z,4.00
2018-06-25T16:42:22.069Z,1.77
2018-06-25T16:44:52.101Z,1.72
2018-06-25T16:47:22.015Z,1.47
2018-06-25T16:49:52.064Z,1.45
2018-06-25T16:52:22.034Z,2.02
2018-06-25T16:54:52.232Z,1.27
2018-06-25T16:57:22.232Z,1.30
2018-06-25T16:59:52.632Z,1.45
2018-06-25T17:02:22.716Z,1.30
2018-06-25T17:04:52.776Z,2.15
2018-06-25T17:07:22.821Z,1.95
2018-06-25T17:09:52.991Z,1.80
2018-06-25T17:12:23.123Z,2.75
2018-06-25T17:14:53.055Z,1.75
2018-06-25T17:17:22.938Z,1.98
2018-06-25T17:19:54.040Z,1.65
2018-06-25T17:22:23.885Z,2.87
2018-06-25T17:24:53.761Z,1.57
2018-06-25T17:27:23.763Z,2.08
2018-06-25T17:29:53.636Z,2.83
2018-06-25T17:32:23.422Z,1.90
2018-06-25T17:34:54.080Z,2.95
2018-06-25T17:37:24.972Z,4.72
2018-06-25T17:39:56.150Z,1.65
2018-06-25T17:42:29.412Z,3.62
2018-06-25T17:45:00.145Z,3.45
2018-06-25T17:47:29.847Z,1.77
2018-06-25T17:49:59.937Z,1.82
2018-06-25T17:52:29.969Z,1.75
2018-06-25T17:55:00.140Z,1.92
2018-06-25T17:57:29.886Z,1.50
2018-06-25T18:00:00.001Z,3.60
2018-06-25T18:02:29.836Z,2.02
2018-06-25T18:04:59.788Z,4.75
2018-06-25T18:07:29.762Z,2.35
2018-06-25T18:09:59.772Z,3.30
2018-06-25T18:12:29.732Z,3.15
2018-06-25T18:15:00.389Z,3.30
2018-06-25T18:17:30.312Z,3.55
2018-06-25T18:20:00.406Z,3.75
2018-06-25T18:22:30.231Z,3.22
2018-06-25T18:25:00.434Z,5.30
2018-06-25T18:27:30.350Z,3.12
2018-06-25T18:30:00.560Z,2.97
2018-06-25T18:32:32.087Z,2.70
2018-06-25T18:35:02.985Z,2.70
2018-06-25T18:37:33.539Z,2.60
2018-06-25T18:40:03.990Z,3.27
2018-06-25T18:42:34.861Z,4.07
2018-06-25T18:45:06.281Z,2.80
2018-06-25T18:47:39.740Z,2.30
2018-06-25T18:50:09.878Z,3.67
2018-06-25T18:52:41.282Z,2.77
2018-06-25T18:55:11.961Z,2.43
2018-06-25T18:57:42.868Z,2.67
2018-06-25T19:00:13.241Z,4.30
2018-06-25T19:02:43.733Z,4.43
2018-06-25T19:05:16.856Z,5.20
2018-06-25T19:07:47.262Z,4.13
2018-06-25T19:10:18.520Z,3.93
2018-06-25T19:12:49.678Z,3.90
2018-06-25T19:15:22.999Z,4.67
2018-06-25T19:17:54.790Z,3.37
2018-06-25T19:20:25.511Z,3.13
2018-06-25T19:22:57.724Z,4.40
2018-06-25T19:25:29.116Z,3.93
2018-06-25T19:28:00.142Z,3.90
2018-06-25T19:30:33.076Z,2.40
2018-06-25T19:33:06.383Z,2.93
2018-06-25T19:35:37.762Z,2.53
2018-06-25T19:38:17.029Z,2.90
2018-06-25T19:40:48.439Z,6.87
2018-06-25T19:43:18.785Z,6.57
2018-06-25T19:45:51.632Z,4.07
2018-06-25T19:48:26.403Z,4.73
2018-06-25T19:50:57.656Z,5.87
2018-06-25T19:53:28.468Z,4.40
2018-06-25T19:55:58.756Z,3.63
2018-06-25T19:58:29.142Z,3.17
2018-06-25T20:00:59.172Z,4.30
2018-06-25T20:03:28.901Z,4.63
2018-06-25T20:05:58.893Z,4.40
2018-06-25T20:08:28.858Z,6.33
2018-06-25T20:10:58.907Z,3.47
2018-06-25T20:13:28.682Z,2.90
2018-06-25T20:15:58.708Z,3.00
2018-06-25T20:18:28.740Z,3.73
2018-06-25T20:20:58.830Z,7.27
2018-06-25T20:23:28.686Z,4.57
2018-06-25T20:25:58.883Z,5.33
2018-06-25T20:28:28.720Z,5.17
2018-06-25T20:30:58.657Z,4.97
2018-06-25T20:33:28.633Z,3.30
2018-06-25T20:35:58.749Z,3.03
2018-06-25T20:38:28.488Z,5.30
2018-06-25T20:40:58.242Z,4.57
2018-06-25T20:43:28.131Z,3.20
2018-06-25T20:45:58.985Z,4.13
2018-06-25T20:48:29.131Z,6.77
2018-06-25T20:50:59.481Z,2.97
2018-06-25T20:53:29.327Z,3.53
2018-06-25T20:55:59.294Z,4.70
2018-06-25T20:58:29.071Z,3.10
2018-06-25T21:00:59.496Z,3.63
2018-06-25T21:03:29.354Z,3.60
2018-06-25T21:05:59.355Z,3.43
2018-06-25T21:08:29.408Z,2.93
2018-06-25T21:10:59.589Z,3.43
2018-06-25T21:13:29.541Z,3.63
2018-06-25T21:15:59.576Z,3.80
2018-06-25T21:18:29.601Z,3.27
2018-06-25T21:20:59.354Z,3.93
2018-06-25T21:23:29.217Z,2.77
2018-06-25T21:25:59.395Z,2.77
2018-06-25T21:28:29.263Z,2.77
2018-06-25T21:30:59.267Z,4.10
2018-06-25T21:33:29.272Z,2.47
2018-06-25T21:35:59.335Z,2.70
2018-06-25T21:38:29.223Z,3.90
2018-06-25T21:40:59.083Z,3.40
2018-06-25T21:43:28.790Z,3.17
2018-06-25T21:45:58.708Z,3.63
2018-06-25T21:48:28.500Z,3.23
2018-06-25T21:50:58.241Z,2.83
2018-06-25T21:53:28.261Z,3.27
2018-06-25T21:55:58.978Z,2.53
2018-06-25T21:58:28.876Z,3.80
2018-06-25T22:00:58.943Z,4.43
2018-06-25T22:03:28.919Z,6.80
2018-06-25T22:05:58.745Z,4.23
2018-06-25T22:08:28.743Z,3.53
2018-06-25T22:10:58.561Z,2.97
2018-06-25T22:13:28.369Z,4.10
2018-06-25T22:15:58.365Z,2.67
2018-06-25T22:18:28.120Z,2.63
2018-06-25T22:20:58.179Z,2.53
2018-06-25T22:23:28.006Z,3.60
2018-06-25T22:25:58.143Z,2.87
2018-06-25T22:28:27.900Z,2.10
2018-06-25T22:30:57.948Z,2.30
2018-06-25T22:33:27.748Z,1.73
2018-06-25T22:35:57.500Z,3.60
2018-06-25T22:38:27.200Z,3.90
2018-06-25T22:40:57.075Z,2.87
2018-06-25T22:43:26.947Z,2.47
2018-06-25T22:45:56.767Z,3.00
2018-06-25T22:48:27.597Z,5.23
2018-06-25T22:50:57.363Z,2.60
2018-06-25T22:53:26.971Z,3.30
2018-06-25T22:55:56.856Z,2.23
2018-06-25T22:58:26.572Z,3.57
2018-06-25T23:00:56.435Z,5.73
2018-06-25T23:03:26.483Z,2.37
